SBRJSBSC

Guest
Details From SBRJ - Santos-Dumont
To SBSC - SANTA CRUZ
Flight Number -
Tags generated
Created
Modified
Stats Distance 32 nm / 60 km
Max Altitude 200 ft / 61 m
Waypoints 3
Social Downloads 3
Likes 0
Share VATSIM

Download

Looking for another format? Having issues loading an existing format? Contact us
Advertisement - Login to hide

Notes

Basic altitude profile: - Ascent Rate: 2500ft/min - Ascent Speed: 180kts - Cruise Altitude: 1900ft - Cruise Speed: 420kts - Descent Rate: 700ft/min - Descent Speed: 250kts Options: - Use NATs: yes - Use PACOTS: yes - Use low airways: yes - Use high airways: yes

Route

SBRJ SCR SBSC

ID Type Via Altitude Latitude Longitude Leg Dist Tot Dist Heading (true) Name
O SBRJ APT - 0 ft / 0 m -22.91046˚ -43.16313˚ - 0 nm - Santos-Dumont
SCR VOR - 200 ft / 61 m -22.94963˚ -43.72768˚ 31 nm 31 nm 266° / 266° -
O SBSC APT - 0 ft / 0 m -22.93249˚ -43.71909˚ 1 nm 32 nm 25° / 25° SANTA CRUZ

Altitude Profile

Advertisement - Login to hide

SBRJ

Details ICAO SBRJ (SDU)
Name Santos-Dumont
Region Brazil
Timezone Unknown (UTC+0.0)
Stats Elevation 11 ft / 3 m (AMSL)
Location -22.910460° -43.163133°
Runways 2
Magnetic Variation 22.782° W

METAR

SBRJ 151900Z 16013KT 9999 FEW030 FEW035TCU 28/20 Q1010

Decode

TAF

TAF SBRJ 151400Z 1518/1606 17015KT 9999 FEW025 TX31/1518Z TN23/1606Z BECMG 1600/1603 34005KT RMK PHC

Decode

Departure Runways

ID Width Length Bearing (true) Bearing (mag) Surface Threshold Offset Overrun Length
02L 98 ft / 30 m 4,154 ft / 1,266 m 358.02° 20.80° Asphalt 0 ft / 0 m 80 ft / 24 m
02R 138 ft / 42 m 4,361 ft / 1,329 m 358.01° 20.79° Asphalt 0 ft / 0 m 80 ft / 24 m
20L 138 ft / 42 m 4,361 ft / 1,329 m 178.01° 200.79° Asphalt 0 ft / 0 m 80 ft / 24 m
20R 98 ft / 30 m 4,154 ft / 1,266 m 178.02° 200.80° Asphalt 0 ft / 0 m 95 ft / 29 m

SBSC

Details ICAO SBSC (STU)
Name SANTA CRUZ
Region Brazil
Timezone America/Sao_Paulo (UTC-2.0)
Stats Elevation 10 ft / 3 m (AMSL)
Location -22.932489° -43.719090°
Runways 1
Magnetic Variation 22.586° W

METAR

SBSC 151900Z 19010KT 9999 SCT025 FEW030TCU 26/22 Q1011

Decode

TAF

TAF SBSC 151400Z 1518/1606 17015KT 9999 FEW030 TX32/1518Z TN23/1606Z BECMG 1521/1523 20010KT BECMG 1600/1603 34005KT FEW020 RMK PHC

Decode

Destination Runways

ID Width Length Bearing (true) Bearing (mag) Surface Threshold Offset Overrun Length
05 148 ft / 45 m 9,039 ft / 2,755 m 24.13° 46.72° Asphalt 0 ft / 0 m 1,145 ft / 349 m
23 148 ft / 45 m 9,039 ft / 2,755 m 204.12° 226.71° Asphalt 0 ft / 0 m 1,145 ft / 349 m

Popular Alternatives